createdAt,value
2023-04-04T00:00:14.800Z,52.32
2023-04-04T00:03:07.925Z,52.77
2023-04-04T00:05:40.735Z,52.99
2023-04-04T00:08:13.589Z,53.17
2023-04-04T00:10:46.683Z,53.17
2023-04-04T00:13:19.521Z,53.37
2023-04-04T00:15:52.094Z,53.07
2023-04-04T00:18:24.721Z,53.16
2023-04-04T00:20:57.206Z,53.39
2023-04-04T00:23:30.133Z,53.27
2023-04-04T00:26:02.644Z,53.55
2023-04-04T00:28:35.647Z,53.69
2023-04-04T00:31:09.590Z,53.89
2023-04-04T00:33:42.428Z,53.94
2023-04-04T00:36:15.236Z,53.99
2023-04-04T00:38:48.503Z,54.05
2023-04-04T00:41:21.017Z,54.05
2023-04-04T00:43:53.891Z,54.16
2023-04-04T00:46:27.284Z,54.14
2023-04-04T00:49:00.137Z,54.13
2023-04-04T00:51:33.418Z,54.17
2023-04-04T00:54:06.727Z,54.00
2023-04-04T00:56:41.336Z,53.96
2023-04-04T00:59:16.201Z,54.35
2023-04-04T01:01:48.741Z,54.14
2023-04-04T01:04:22.278Z,54.32
2023-04-04T01:06:54.683Z,54.38
2023-04-04T01:09:28.077Z,54.41
2023-04-04T01:12:03.917Z,54.65
2023-04-04T01:14:37.635Z,54.48
2023-04-04T01:17:11.112Z,54.55
2023-04-04T01:19:50.827Z,54.95
2023-04-04T01:22:26.381Z,54.89
2023-04-04T01:24:59.739Z,55.12
2023-04-04T01:27:33.485Z,54.84
2023-04-04T01:30:14.159Z,54.98
2023-04-04T01:32:55.698Z,54.78
2023-04-04T01:35:34.468Z,54.57
2023-04-04T01:38:16.892Z,55.01
2023-04-04T01:40:53.812Z,55.30
2023-04-04T01:43:26.584Z,55.64
2023-04-04T01:45:59.804Z,55.17
2023-04-04T01:48:33.175Z,54.85
2023-04-04T01:51:10.522Z,54.59
2023-04-04T01:53:43.133Z,54.39
2023-04-04T01:56:15.616Z,54.76
2023-04-04T01:58:48.492Z,54.88
2023-04-04T02:01:21.590Z,54.61
2023-04-04T02:03:54.384Z,54.27
2023-04-04T02:06:27.803Z,54.40
2023-04-04T02:09:01.061Z,54.71
2023-04-04T02:11:34.529Z,55.11
2023-04-04T02:14:07.545Z,55.40
2023-04-04T02:16:40.378Z,55.33
2023-04-04T02:19:13.144Z,55.42
2023-04-04T02:21:46.273Z,55.24
2023-04-04T02:24:18.736Z,54.94
2023-04-04T02:26:51.727Z,54.53
2023-04-04T02:29:24.632Z,55.01
2023-04-04T02:31:57.665Z,55.17
2023-04-04T02:34:30.657Z,55.49
2023-04-04T02:37:04.060Z,55.28
2023-04-04T02:39:36.705Z,55.05
2023-04-04T02:42:09.708Z,55.14
2023-04-04T02:44:42.718Z,55.11
2023-04-04T02:47:18.576Z,54.54
2023-04-04T02:49:51.303Z,54.65
2023-04-04T02:52:25.541Z,54.71
2023-04-04T02:54:58.451Z,54.21
2023-04-04T02:57:36.967Z,53.79
2023-04-04T03:00:12.293Z,53.35
2023-04-04T03:02:45.430Z,52.84
2023-04-04T03:05:18.797Z,52.02
2023-04-04T03:07:54.178Z,52.21
2023-04-04T03:10:29.883Z,52.19
2023-04-04T03:13:03.175Z,53.02
2023-04-04T03:15:36.072Z,53.01
2023-04-04T03:18:09.087Z,52.44
2023-04-04T03:20:42.398Z,51.65
2023-04-04T03:23:15.446Z,51.53
2023-04-04T03:25:48.005Z,51.77
2023-04-04T03:28:20.809Z,51.84
2023-04-04T03:30:53.702Z,52.07
2023-04-04T03:33:27.545Z,51.99
2023-04-04T03:35:59.958Z,52.39
2023-04-04T03:38:32.738Z,52.09
2023-04-04T03:41:08.922Z,52.17
2023-04-04T03:43:42.660Z,51.86
2023-04-04T03:46:15.078Z,51.82
2023-04-04T03:48:49.729Z,51.66
2023-04-04T03:51:27.985Z,50.86
2023-04-04T03:54:00.892Z,51.11
2023-04-04T03:56:35.458Z,51.71
2023-04-04T03:59:11.003Z,51.60
2023-04-04T04:01:43.601Z,51.20
2023-04-04T04:04:16.992Z,51.92
2023-04-04T04:06:49.994Z,51.76
2023-04-04T04:09:22.824Z,51.82
2023-04-04T04:11:57.465Z,52.21
2023-04-04T04:14:30.892Z,52.44
2023-04-04T04:17:05.658Z,52.70
2023-04-04T04:19:38.438Z,52.38
2023-04-04T04:22:11.708Z,52.54
2023-04-04T04:24:44.693Z,52.56
2023-04-04T04:27:17.535Z,52.92
2023-04-04T04:29:50.722Z,53.46
2023-04-04T04:32:23.607Z,53.66
2023-04-04T04:34:58.221Z,53.76
2023-04-04T04:37:30.874Z,53.98
2023-04-04T04:40:04.776Z,54.47
2023-04-04T04:42:48.059Z,54.80
2023-04-04T04:45:24.767Z,55.06
2023-04-04T04:48:09.143Z,55.34
2023-04-04T04:50:49.146Z,55.59
2023-04-04T04:53:27.844Z,55.90
2023-04-04T04:56:00.771Z,56.23
2023-04-04T04:58:33.625Z,56.49
2023-04-04T05:01:06.664Z,56.71
2023-04-04T05:03:42.226Z,56.52
2023-04-04T05:06:17.691Z,56.89
2023-04-04T05:08:50.404Z,56.81
2023-04-04T05:11:31.054Z,57.17
2023-04-04T05:14:03.966Z,57.45
2023-04-04T05:16:41.606Z,57.45
2023-04-04T05:19:14.604Z,57.89
2023-04-04T05:21:50.832Z,57.80
2023-04-04T05:24:33.052Z,58.23
2023-04-04T05:27:05.973Z,58.39
2023-04-04T05:29:43.249Z,58.21
2023-04-04T05:32:16.007Z,57.99
2023-04-04T05:34:52.021Z,58.34
2023-04-04T05:37:24.901Z,58.50
2023-04-04T05:39:57.668Z,58.58
2023-04-04T05:42:30.769Z,58.27
2023-04-04T05:45:04.354Z,57.89
2023-04-04T05:47:37.117Z,57.78
2023-04-04T05:50:11.232Z,57.51
2023-04-04T05:52:44.304Z,58.18
2023-04-04T05:55:18.336Z,58.36
2023-04-04T05:57:54.288Z,58.04
2023-04-04T06:00:32.677Z,58.00
2023-04-04T06:03:08.569Z,57.94
2023-04-04T06:05:43.463Z,57.83
2023-04-04T06:08:16.097Z,57.85
2023-04-04T06:10:48.277Z,58.02
2023-04-04T06:13:21.144Z,58.06
2023-04-04T06:15:58.319Z,58.02
2023-04-04T06:18:33.870Z,57.45
2023-04-04T06:21:06.760Z,57.03
2023-04-04T06:23:40.517Z,57.08
2023-04-04T06:26:13.333Z,57.25
2023-04-04T06:28:51.482Z,56.92
2023-04-04T06:31:28.120Z,56.70
2023-04-04T06:34:03.321Z,56.42
2023-04-04T06:36:40.607Z,56.56
2023-04-04T06:39:13.289Z,56.57
2023-04-04T06:41:48.322Z,56.64
2023-04-04T06:44:19.311Z,56.45
2023-04-04T06:46:52.345Z,55.89
2023-04-04T06:49:25.194Z,55.53
2023-04-04T06:51:58.789Z,55.75
2023-04-04T06:54:31.668Z,55.90
2023-04-04T06:57:04.789Z,56.03
2023-04-04T06:59:37.202Z,55.91
2023-04-04T07:02:10.067Z,55.39
2023-04-04T07:04:42.898Z,54.86
2023-04-04T07:07:16.333Z,54.19
2023-04-04T07:09:48.782Z,54.11
2023-04-04T07:12:21.904Z,54.52
2023-04-04T07:14:54.768Z,54.28
2023-04-04T07:17:27.579Z,53.02
2023-04-04T07:20:01.312Z,53.45
2023-04-04T07:22:38.550Z,52.31
2023-04-04T07:25:12.549Z,52.35
2023-04-04T07:27:45.194Z,52.43
2023-04-04T07:30:18.693Z,52.77
2023-04-04T07:32:58.115Z,52.29
2023-04-04T07:35:31.172Z,52.33
2023-04-04T07:38:04.365Z,51.86
2023-04-04T07:40:37.534Z,51.89
2023-04-04T07:43:10.047Z,52.09
2023-04-04T07:45:42.289Z,51.81
2023-04-04T07:48:14.692Z,50.23
2023-04-04T07:50:47.836Z,50.08
2023-04-04T07:53:20.682Z,50.52
2023-04-04T07:55:53.102Z,50.38
2023-04-04T07:58:25.737Z,49.88
2023-04-04T08:01:00.464Z,49.55
2023-04-04T08:03:37.055Z,49.48
2023-04-04T08:06:10.571Z,50.12
2023-04-04T08:08:43.466Z,50.03
2023-04-04T08:11:16.532Z,48.95
2023-04-04T08:13:49.376Z,48.45
2023-04-04T08:16:22.277Z,48.10
2023-04-04T08:18:54.915Z,47.84
2023-04-04T08:21:27.804Z,47.30
2023-04-04T08:24:00.507Z,47.66
2023-04-04T08:26:33.059Z,47.47
2023-04-04T08:29:05.513Z,46.37
2023-04-04T08:31:39.369Z,46.02
2023-04-04T08:34:12.166Z,46.60
2023-04-04T08:36:44.459Z,46.70
2023-04-04T08:39:17.094Z,47.00
2023-04-04T08:41:55.651Z,46.87
2023-04-04T08:44:29.667Z,47.18
2023-04-04T08:47:05.376Z,47.45
2023-04-04T08:49:42.539Z,46.55
2023-04-04T08:52:16.764Z,46.41
2023-04-04T08:54:51.336Z,45.48
2023-04-04T08:57:23.917Z,46.23
2023-04-04T08:59:56.719Z,46.38
2023-04-04T09:02:34.861Z,46.25
2023-04-04T09:05:09.637Z,46.14
2023-04-04T09:07:42.048Z,43.77
2023-04-04T09:10:14.746Z,43.34
2023-04-04T09:12:48.579Z,43.25
2023-04-04T09:15:21.090Z,42.80
2023-04-04T09:17:53.607Z,43.22
2023-04-04T09:20:41.031Z,42.88
2023-04-04T09:23:16.193Z,42.86
2023-04-04T09:28:31.013Z,43.69
2023-04-04T09:31:08.288Z,43.63
2023-04-04T09:33:41.993Z,43.03
2023-04-04T09:36:18.377Z,43.05
2023-04-04T09:38:54.727Z,43.47
2023-04-04T09:41:28.672Z,43.91
2023-04-04T09:44:02.217Z,43.74
2023-04-04T09:46:35.808Z,42.99
2023-04-04T09:49:13.429Z,43.06
2023-04-04T09:51:54.162Z,43.27
2023-04-04T09:54:30.081Z,43.09
2023-04-04T09:57:04.545Z,43.72
2023-04-04T09:59:37.661Z,43.84
2023-04-04T10:02:12.831Z,44.08
2023-04-04T10:04:48.882Z,44.09
2023-04-04T10:07:23.862Z,43.80
2023-04-04T10:09:57.558Z,43.27
2023-04-04T10:12:33.095Z,42.76
2023-04-04T10:15:06.890Z,42.78
2023-04-04T10:17:41.885Z,43.01
2023-04-04T10:20:15.109Z,42.56
2023-04-04T10:22:50.612Z,42.74
2023-04-04T10:25:23.768Z,42.84
2023-04-04T10:27:56.529Z,42.73
2023-04-04T10:30:29.425Z,43.53
2023-04-04T10:33:09.023Z,44.13
2023-04-04T10:35:45.655Z,44.06
2023-04-04T10:38:22.900Z,43.94
2023-04-04T10:40:57.398Z,44.95
2023-04-04T10:43:35.995Z,44.09
2023-04-04T10:46:13.561Z,43.90
2023-04-04T10:48:47.288Z,44.05
2023-04-04T10:51:21.038Z,44.05
2023-04-04T10:53:53.873Z,43.85
2023-04-04T10:56:27.416Z,43.59
2023-04-04T10:59:15.379Z,43.57
2023-04-04T11:01:56.886Z,43.35
2023-04-04T11:04:42.734Z,42.38
2023-04-04T11:07:17.895Z,42.75
2023-04-04T11:09:57.964Z,43.49
2023-04-04T11:12:38.385Z,42.66
2023-04-04T11:15:13.319Z,41.89
2023-04-04T11:17:57.825Z,42.55
2023-04-04T11:20:35.801Z,42.00
2023-04-04T11:23:17.036Z,41.87
2023-04-04T11:25:57.017Z,41.19
2023-04-04T11:28:45.564Z,41.42
2023-04-04T11:31:29.847Z,41.77
2023-04-04T11:34:04.265Z,41.84
2023-04-04T11:36:56.385Z,41.59
2023-04-04T11:39:31.135Z,41.68
2023-04-04T11:42:08.325Z,41.69
2023-04-04T11:45:03.580Z,40.82
2023-04-04T11:47:36.387Z,41.64
2023-04-04T11:50:15.988Z,40.47
2023-04-04T11:52:48.611Z,40.38
2023-04-04T11:55:23.133Z,40.04
2023-04-04T11:57:58.232Z,39.94
2023-04-04T12:00:36.113Z,39.82
2023-04-04T12:03:11.674Z,39.45
2023-04-04T12:05:45.613Z,39.81
2023-04-04T12:08:19.146Z,40.10
2023-04-04T12:10:53.156Z,40.02
2023-04-04T12:13:33.317Z,39.92
2023-04-04T12:16:08.094Z,40.71
2023-04-04T12:18:41.405Z,40.08
2023-04-04T12:21:13.837Z,38.78
2023-04-04T12:23:47.700Z,38.61
2023-04-04T12:26:21.218Z,39.24
2023-04-04T12:28:57.130Z,39.55
2023-04-04T12:31:31.281Z,39.33
2023-04-04T12:34:04.969Z,38.42
2023-04-04T12:36:40.562Z,38.81
2023-04-04T12:39:14.288Z,39.57
2023-04-04T12:41:55.107Z,39.05
2023-04-04T12:44:33.309Z,39.27
2023-04-04T12:47:07.809Z,39.30
2023-04-04T12:49:45.295Z,38.44
2023-04-04T12:52:22.482Z,39.01
2023-04-04T12:55:07.499Z,39.57
2023-04-04T13:05:13.318Z,39.36
2023-04-04T13:07:46.475Z,39.37
2023-04-04T13:10:20.619Z,39.70
2023-04-04T13:12:58.830Z,39.79
2023-04-04T13:15:54.560Z,39.54
2023-04-04T13:18:26.561Z,39.87
2023-04-04T13:20:59.523Z,39.06
2023-04-04T13:23:32.370Z,39.00
2023-04-04T13:26:05.190Z,39.13
2023-04-04T13:28:38.340Z,37.91
2023-04-04T13:31:12.641Z,39.30
2023-04-04T13:33:45.186Z,39.70
2023-04-04T13:36:18.317Z,38.37
2023-04-04T13:38:51.822Z,38.73
2023-04-04T13:41:24.734Z,38.80
2023-04-04T13:43:57.370Z,37.97
2023-04-04T13:46:30.587Z,38.50
2023-04-04T13:49:03.747Z,37.72
2023-04-04T13:51:36.433Z,37.88
2023-04-04T13:54:08.706Z,36.93
2023-04-04T13:56:41.622Z,37.30
2023-04-04T13:59:14.630Z,36.55
2023-04-04T14:01:47.784Z,37.16
2023-04-04T14:04:23.750Z,36.63
2023-04-04T14:07:15.578Z,36.99
2023-04-04T14:09:48.771Z,37.13
2023-04-04T14:12:21.525Z,37.64
2023-04-04T14:14:54.251Z,38.11
2023-04-04T14:17:27.422Z,38.48
2023-04-04T14:20:00.478Z,37.64
2023-04-04T14:22:33.724Z,37.83
2023-04-04T14:25:07.400Z,38.58
2023-04-04T14:27:40.743Z,37.12
2023-04-04T14:30:14.459Z,37.75
2023-04-04T14:32:47.210Z,38.60
2023-04-04T14:35:20.027Z,37.82
2023-04-04T14:37:54.565Z,38.13
2023-04-04T14:40:29.592Z,37.55
2023-04-04T14:43:02.282Z,37.41
2023-04-04T14:45:34.885Z,38.05
2023-04-04T14:48:07.985Z,37.83
2023-04-04T14:50:42.913Z,37.97
2023-04-04T14:53:14.149Z,37.71
2023-04-04T14:55:46.237Z,37.15
2023-04-04T14:58:19.524Z,37.61
2023-04-04T15:00:52.944Z,37.47
2023-04-04T15:03:25.268Z,38.25
2023-04-04T15:05:57.757Z,37.16
2023-04-04T15:08:30.686Z,38.04
2023-04-04T15:11:03.660Z,36.91
2023-04-04T15:13:55.468Z,38.07
2023-04-04T15:16:30.218Z,38.77
2023-04-04T15:19:04.263Z,38.72
2023-04-04T15:21:36.725Z,38.38
2023-04-04T15:24:10.148Z,37.99
2023-04-04T15:26:42.300Z,37.13
2023-04-04T15:29:15.736Z,38.17
2023-04-04T15:31:48.110Z,38.00
2023-04-04T15:34:20.979Z,36.24
2023-04-04T15:36:53.381Z,35.95
2023-04-04T15:39:26.465Z,36.29
2023-04-04T15:41:59.366Z,36.37
2023-04-04T15:44:32.041Z,36.16
2023-04-04T15:47:04.360Z,36.78
2023-04-04T15:49:36.644Z,37.43
2023-04-04T15:52:10.781Z,37.84
2023-04-04T15:54:43.060Z,37.84
2023-04-04T15:57:15.628Z,38.49
2023-04-04T15:59:49.682Z,38.44
2023-04-04T16:02:22.576Z,38.29
2023-04-04T16:04:55.628Z,36.63
2023-04-04T16:07:28.107Z,37.34
2023-04-04T16:10:01.186Z,37.64
2023-04-04T16:12:34.170Z,37.87
2023-04-04T16:15:08.862Z,38.40
2023-04-04T16:17:39.625Z,37.94
2023-04-04T16:20:13.679Z,37.65
2023-04-04T16:22:46.079Z,38.50
2023-04-04T16:25:19.259Z,37.68
2023-04-04T16:27:51.625Z,37.75
2023-04-04T16:30:24.222Z,37.83
2023-04-04T16:35:16.367Z,37.24
2023-04-04T16:37:49.148Z,37.49
2023-04-04T16:40:21.792Z,37.62
2023-04-04T16:42:54.324Z,37.16
2023-04-04T16:45:27.197Z,36.81
2023-04-04T16:48:00.344Z,36.63
2023-04-04T16:50:36.157Z,36.76
2023-04-04T16:53:09.408Z,36.71
2023-04-04T16:55:42.705Z,37.14
2023-04-04T16:58:15.614Z,37.53
2023-04-04T17:00:47.709Z,37.01
2023-04-04T17:03:20.345Z,37.10
2023-04-04T17:05:56.327Z,37.63
2023-04-04T17:08:29.330Z,37.34
2023-04-04T17:11:01.789Z,37.48
2023-04-04T17:13:35.779Z,37.79
2023-04-04T17:16:08.849Z,37.96
2023-04-04T17:18:41.804Z,37.91
2023-04-04T17:21:14.413Z,38.11
2023-04-04T17:23:47.293Z,38.34
2023-04-04T17:26:20.070Z,38.74
2023-04-04T17:28:52.495Z,38.87
2023-04-04T17:31:24.880Z,38.81
2023-04-04T17:33:57.389Z,39.03
2023-04-04T17:36:31.007Z,39.32
2023-04-04T17:39:03.759Z,39.19
2023-04-04T17:41:36.341Z,39.27
2023-04-04T17:44:09.911Z,39.41
2023-04-04T17:46:42.623Z,39.48
2023-04-04T17:49:19.879Z,39.76
2023-04-04T17:51:53.597Z,40.19
2023-04-04T17:54:27.003Z,40.03
2023-04-04T17:56:59.388Z,40.22
2023-04-04T17:59:32.011Z,40.17
2023-04-04T18:02:04.656Z,40.05
2023-04-04T18:04:37.705Z,40.42
2023-04-04T18:07:10.039Z,40.25
2023-04-04T18:09:43.791Z,40.40
2023-04-04T18:12:16.476Z,40.45
2023-04-04T18:14:49.148Z,40.62
2023-04-04T18:17:21.770Z,41.25
2023-04-04T18:19:56.299Z,41.32
2023-04-04T18:22:29.008Z,41.60
2023-04-04T18:25:01.961Z,41.93
2023-04-04T18:27:34.451Z,42.10
2023-04-04T18:30:08.255Z,42.10
2023-04-04T18:32:40.878Z,42.29
2023-04-04T18:35:14.848Z,42.64
2023-04-04T18:37:47.657Z,42.98
2023-04-04T18:40:20.212Z,42.99
2023-04-04T18:42:54.799Z,42.94
2023-04-04T18:45:33.719Z,43.02
2023-04-04T18:48:12.625Z,42.96
2023-04-04T18:50:45.859Z,43.17
2023-04-04T18:53:18.317Z,43.18
2023-04-04T18:55:53.321Z,43.40
2023-04-04T18:59:48.200Z,43.55
2023-04-04T19:02:21.018Z,43.85
2023-04-04T19:04:56.108Z,43.84
2023-04-04T19:07:32.663Z,43.89
2023-04-04T19:10:07.236Z,43.93
2023-04-04T19:12:39.967Z,44.16
2023-04-04T19:15:13.315Z,44.46
2023-04-04T19:17:46.542Z,44.30
2023-04-04T19:20:19.833Z,44.83
2023-04-04T19:22:52.558Z,44.93
2023-04-04T19:25:25.115Z,45.40
2023-04-04T19:27:57.866Z,45.83
2023-04-04T19:30:43.991Z,46.08
2023-04-04T19:33:18.128Z,46.46
2023-04-04T19:36:00.381Z,46.29
2023-04-04T19:38:35.647Z,46.18
2023-04-04T19:41:13.141Z,46.49
2023-04-04T19:43:47.328Z,47.29
2023-04-04T19:46:25.460Z,47.54
2023-04-04T19:48:58.257Z,47.60
2023-04-04T19:51:40.280Z,48.35
2023-04-04T19:54:18.848Z,48.95
2023-04-04T19:56:52.955Z,49.46
2023-04-04T19:59:56.007Z,49.73
2023-04-04T20:03:01.695Z,50.10
2023-04-04T20:05:56.545Z,50.28
2023-04-04T20:08:39.596Z,50.46
2023-04-04T20:11:13.140Z,50.59
2023-04-04T20:13:46.757Z,50.76
2023-04-04T20:16:19.813Z,50.80
2023-04-04T20:18:52.797Z,50.89
2023-04-04T20:21:27.180Z,50.94
2023-04-04T20:24:03.626Z,51.20
2023-04-04T20:26:59.939Z,51.06
2023-04-04T20:29:37.543Z,51.09
2023-04-04T20:32:11.163Z,51.40
2023-04-04T20:34:45.769Z,51.81
2023-04-04T20:37:20.123Z,52.09
2023-04-04T20:39:56.109Z,52.44
2023-04-04T20:42:42.365Z,52.89
2023-04-04T20:45:46.806Z,52.81
2023-04-04T20:48:40.025Z,53.01
2023-04-04T20:51:32.383Z,52.88
2023-04-04T20:54:05.837Z,53.04
2023-04-04T20:56:51.623Z,52.97
2023-04-04T20:59:40.799Z,53.02
2023-04-04T21:02:19.754Z,52.25
2023-04-04T21:04:53.287Z,52.02
2023-04-04T21:07:51.774Z,51.75
2023-04-04T21:10:49.341Z,51.70
2023-04-04T21:13:28.302Z,51.54
2023-04-04T21:16:03.273Z,51.44
2023-04-04T21:18:37.074Z,51.58
2023-04-04T21:21:16.909Z,51.35
2023-04-04T21:23:52.793Z,51.12
2023-04-04T21:26:39.436Z,50.76
2023-04-04T21:29:21.743Z,50.42
2023-04-04T21:31:55.717Z,50.18
2023-04-04T21:34:28.862Z,50.45
2023-04-04T21:37:03.485Z,50.57
2023-04-04T21:39:37.906Z,51.12
2023-04-04T21:42:10.394Z,51.17
2023-04-04T21:44:42.722Z,51.63
2023-04-04T21:47:15.869Z,52.35
2023-04-04T21:49:48.251Z,52.69
2023-04-04T21:52:20.893Z,52.74
2023-04-04T21:54:54.110Z,52.89
2023-04-04T21:57:26.480Z,53.17
2023-04-04T21:59:59.217Z,53.07
2023-04-04T22:02:32.213Z,52.92
2023-04-04T22:05:04.605Z,52.98
2023-04-04T22:07:37.578Z,53.02
2023-04-04T22:10:12.363Z,53.18
2023-04-04T22:12:45.936Z,52.55
2023-04-04T22:15:19.132Z,53.12
2023-04-04T22:17:55.151Z,53.25
2023-04-04T22:20:27.659Z,53.11
2023-04-04T22:23:00.503Z,52.83
2023-04-04T22:25:33.967Z,52.00
2023-04-04T22:28:08.665Z,52.47
2023-04-04T22:30:42.538Z,52.54
2023-04-04T22:33:15.842Z,52.83
2023-04-04T22:35:48.452Z,53.00
2023-04-04T22:38:21.163Z,53.31
2023-04-04T22:40:53.828Z,53.14
2023-04-04T22:43:26.969Z,53.65
2023-04-04T22:45:59.339Z,53.82
2023-04-04T22:48:31.920Z,53.50
2023-04-04T22:51:04.265Z,53.72
2023-04-04T22:53:37.198Z,53.72
2023-04-04T22:56:09.730Z,53.27
2023-04-04T22:58:42.393Z,53.31
2023-04-04T23:01:14.981Z,53.65
2023-04-04T23:03:47.297Z,53.87
2023-04-04T23:06:20.226Z,52.64
2023-04-04T23:08:52.877Z,51.66
2023-04-04T23:11:25.019Z,51.41
2023-04-04T23:13:58.297Z,53.12
2023-04-04T23:16:30.997Z,53.26
2023-04-04T23:19:04.531Z,53.25
2023-04-04T23:21:36.777Z,53.62
2023-04-04T23:24:09.719Z,53.89
2023-04-04T23:26:42.103Z,54.20
2023-04-04T23:29:14.701Z,54.30
2023-04-04T23:31:47.102Z,55.08
2023-04-04T23:34:19.589Z,55.44
2023-04-04T23:36:51.817Z,55.58
2023-04-04T23:39:24.576Z,55.47
2023-04-04T23:41:58.357Z,55.66
2023-04-04T23:44:30.720Z,56.00
2023-04-04T23:47:03.273Z,56.25
2023-04-04T23:49:36.046Z,56.31
2023-04-04T23:52:09.360Z,56.43
2023-04-04T23:54:42.120Z,56.64
2023-04-04T23:57:14.735Z,56.65
2023-04-04T23:59:47.500Z,56.82
